sensor_id;sensor_type;location;lat;lon;timestamp;P1;durP1;ratioP1;P2;durP2;ratioP2
13222;SDS011;6676;45.192;5.722;2022-12-10T00:00:25;3.65;;;3.08;;
13222;SDS011;6676;45.192;5.722;2022-12-10T00:03:16;4.20;;;2.92;;
13222;SDS011;6676;45.192;5.722;2022-12-10T00:06:10;3.58;;;3.05;;
13222;SDS011;6676;45.192;5.722;2022-12-10T00:09:03;4.17;;;3.37;;
13222;SDS011;6676;45.192;5.722;2022-12-10T00:11:56;5.72;;;4.15;;
13222;SDS011;6676;45.192;5.722;2022-12-10T00:14:48;4.83;;;3.90;;
13222;SDS011;6676;45.192;5.722;2022-12-10T00:17:39;5.25;;;4.10;;
13222;SDS011;6676;45.192;5.722;2022-12-10T00:20:31;5.70;;;3.50;;
13222;SDS011;6676;45.192;5.722;2022-12-10T00:23:12;6.42;;;3.60;;
13222;SDS011;6676;45.192;5.722;2022-12-10T00:26:06;5.00;;;3.70;;
13222;SDS011;6676;45.192;5.722;2022-12-10T00:29:00;6.17;;;3.62;;
13222;SDS011;6676;45.192;5.722;2022-12-10T00:31:56;4.53;;;3.10;;
13222;SDS011;6676;45.192;5.722;2022-12-10T00:34:54;4.15;;;2.83;;
13222;SDS011;6676;45.192;5.722;2022-12-10T00:37:35;3.58;;;2.92;;
13222;SDS011;6676;45.192;5.722;2022-12-10T00:40:26;3.77;;;2.85;;
13222;SDS011;6676;45.192;5.722;2022-12-10T00:43:18;4.30;;;3.20;;
13222;SDS011;6676;45.192;5.722;2022-12-10T00:46:10;4.83;;;3.30;;
13222;SDS011;6676;45.192;5.722;2022-12-10T00:49:03;4.92;;;3.55;;
13222;SDS011;6676;45.192;5.722;2022-12-10T00:51:54;5.10;;;3.52;;
13222;SDS011;6676;45.192;5.722;2022-12-10T00:57:26;5.33;;;3.83;;
13222;SDS011;6676;45.192;5.722;2022-12-10T01:00:17;4.67;;;3.77;;
13222;SDS011;6676;45.192;5.722;2022-12-10T01:03:09;5.65;;;4.20;;
13222;SDS011;6676;45.192;5.722;2022-12-10T01:06:07;4.37;;;3.55;;
13222;SDS011;6676;45.192;5.722;2022-12-10T01:09:02;5.08;;;3.98;;
13222;SDS011;6676;45.192;5.722;2022-12-10T01:11:55;5.35;;;4.10;;
13222;SDS011;6676;45.192;5.722;2022-12-10T01:14:50;4.55;;;3.75;;
13222;SDS011;6676;45.192;5.722;2022-12-10T01:20:21;4.70;;;3.67;;
13222;SDS011;6676;45.192;5.722;2022-12-10T01:23:13;5.85;;;4.05;;
13222;SDS011;6676;45.192;5.722;2022-12-10T01:26:05;5.00;;;3.77;;
13222;SDS011;6676;45.192;5.722;2022-12-10T01:28:58;6.45;;;4.00;;
13222;SDS011;6676;45.192;5.722;2022-12-10T01:31:52;5.12;;;3.80;;
13222;SDS011;6676;45.192;5.722;2022-12-10T01:34:44;4.83;;;3.62;;
13222;SDS011;6676;45.192;5.722;2022-12-10T01:37:36;5.25;;;3.90;;
13222;SDS011;6676;45.192;5.722;2022-12-10T01:40:28;5.45;;;3.92;;
13222;SDS011;6676;45.192;5.722;2022-12-10T01:43:20;5.17;;;4.00;;
13222;SDS011;6676;45.192;5.722;2022-12-10T01:46:11;4.92;;;3.85;;
13222;SDS011;6676;45.192;5.722;2022-12-10T01:49:04;4.97;;;3.72;;
13222;SDS011;6676;45.192;5.722;2022-12-10T01:51:58;6.15;;;4.45;;
13222;SDS011;6676;45.192;5.722;2022-12-10T01:57:30;4.87;;;3.70;;
13222;SDS011;6676;45.192;5.722;2022-12-10T02:00:22;5.00;;;3.52;;
13222;SDS011;6676;45.192;5.722;2022-12-10T02:03:17;6.30;;;4.20;;
13222;SDS011;6676;45.192;5.722;2022-12-10T02:06:15;5.83;;;4.10;;
13222;SDS011;6676;45.192;5.722;2022-12-10T02:09:13;5.00;;;3.45;;
13222;SDS011;6676;45.192;5.722;2022-12-10T02:12:11;6.17;;;4.10;;
13222;SDS011;6676;45.192;5.722;2022-12-10T02:14:52;5.37;;;3.45;;
13222;SDS011;6676;45.192;5.722;2022-12-10T02:20:28;6.87;;;4.60;;
13222;SDS011;6676;45.192;5.722;2022-12-10T02:23:24;5.90;;;4.28;;
13222;SDS011;6676;45.192;5.722;2022-12-10T02:26:22;5.17;;;3.87;;
13222;SDS011;6676;45.192;5.722;2022-12-10T02:29:14;5.23;;;3.67;;
13222;SDS011;6676;45.192;5.722;2022-12-10T02:32:11;6.78;;;4.10;;
13222;SDS011;6676;45.192;5.722;2022-12-10T02:35:05;5.58;;;3.90;;
13222;SDS011;6676;45.192;5.722;2022-12-10T02:38:01;4.67;;;3.90;;
13222;SDS011;6676;45.192;5.722;2022-12-10T02:40:57;4.85;;;3.15;;
13222;SDS011;6676;45.192;5.722;2022-12-10T02:43:52;5.40;;;4.25;;
13222;SDS011;6676;45.192;5.722;2022-12-10T02:46:46;6.33;;;3.90;;
13222;SDS011;6676;45.192;5.722;2022-12-10T02:49:41;6.83;;;4.28;;
13222;SDS011;6676;45.192;5.722;2022-12-10T02:55:14;5.10;;;3.83;;
13222;SDS011;6676;45.192;5.722;2022-12-10T02:58:11;5.20;;;3.98;;
13222;SDS011;6676;45.192;5.722;2022-12-10T03:01:06;5.00;;;3.72;;
13222;SDS011;6676;45.192;5.722;2022-12-10T03:04:02;7.53;;;3.92;;
13222;SDS011;6676;45.192;5.722;2022-12-10T03:06:57;5.28;;;3.92;;
13222;SDS011;6676;45.192;5.722;2022-12-10T03:09:39;6.03;;;4.22;;
13222;SDS011;6676;45.192;5.722;2022-12-10T03:12:33;5.50;;;3.55;;
13222;SDS011;6676;45.192;5.722;2022-12-10T03:15:28;6.17;;;4.17;;
13222;SDS011;6676;45.192;5.722;2022-12-10T03:18:22;5.67;;;4.30;;
13222;SDS011;6676;45.192;5.722;2022-12-10T03:21:15;6.20;;;4.05;;
13222;SDS011;6676;45.192;5.722;2022-12-10T03:24:09;4.95;;;3.00;;
13222;SDS011;6676;45.192;5.722;2022-12-10T03:26:49;5.22;;;3.45;;
13222;SDS011;6676;45.192;5.722;2022-12-10T03:29:43;3.85;;;2.42;;
13222;SDS011;6676;45.192;5.722;2022-12-10T03:32:35;4.60;;;3.52;;
13222;SDS011;6676;45.192;5.722;2022-12-10T03:35:28;3.62;;;2.80;;
13222;SDS011;6676;45.192;5.722;2022-12-10T03:38:10;3.90;;;2.80;;
13222;SDS011;6676;45.192;5.722;2022-12-10T03:41:02;3.98;;;2.95;;
13222;SDS011;6676;45.192;5.722;2022-12-10T03:43:55;4.30;;;3.30;;
13222;SDS011;6676;45.192;5.722;2022-12-10T03:46:47;6.03;;;2.75;;
13222;SDS011;6676;45.192;5.722;2022-12-10T03:52:19;2.92;;;2.05;;
13222;SDS011;6676;45.192;5.722;2022-12-10T03:55:11;5.95;;;3.75;;
13222;SDS011;6676;45.192;5.722;2022-12-10T03:58:02;5.80;;;3.92;;
13222;SDS011;6676;45.192;5.722;2022-12-10T04:00:54;5.90;;;4.03;;
13222;SDS011;6676;45.192;5.722;2022-12-10T04:03:46;5.45;;;3.25;;
13222;SDS011;6676;45.192;5.722;2022-12-10T04:06:38;5.60;;;4.17;;
13222;SDS011;6676;45.192;5.722;2022-12-10T04:09:31;6.12;;;4.40;;
13222;SDS011;6676;45.192;5.722;2022-12-10T04:15:02;5.90;;;3.27;;
13222;SDS011;6676;45.192;5.722;2022-12-10T04:18:13;4.30;;;2.87;;
13222;SDS011;6676;45.192;5.722;2022-12-10T04:21:05;5.33;;;3.25;;
13222;SDS011;6676;45.192;5.722;2022-12-10T04:26:53;3.37;;;2.10;;
13222;SDS011;6676;45.192;5.722;2022-12-10T04:29:46;5.90;;;3.30;;
13222;SDS011;6676;45.192;5.722;2022-12-10T04:35:21;3.65;;;2.10;;
13222;SDS011;6676;45.192;5.722;2022-12-10T04:40:55;3.10;;;2.30;;
13222;SDS011;6676;45.192;5.722;2022-12-10T04:43:46;3.87;;;2.30;;
13222;SDS011;6676;45.192;5.722;2022-12-10T04:46:38;3.85;;;2.42;;
13222;SDS011;6676;45.192;5.722;2022-12-10T04:49:31;3.67;;;2.40;;
13222;SDS011;6676;45.192;5.722;2022-12-10T04:52:25;2.60;;;1.95;;
13222;SDS011;6676;45.192;5.722;2022-12-10T04:55:16;3.17;;;2.05;;
13222;SDS011;6676;45.192;5.722;2022-12-10T04:57:56;2.92;;;1.60;;
13222;SDS011;6676;45.192;5.722;2022-12-10T05:00:47;2.92;;;2.35;;
13222;SDS011;6676;45.192;5.722;2022-12-10T05:03:38;4.10;;;2.92;;
13222;SDS011;6676;45.192;5.722;2022-12-10T05:06:31;4.03;;;2.67;;
13222;SDS011;6676;45.192;5.722;2022-12-10T05:09:23;2.83;;;1.92;;
13222;SDS011;6676;45.192;5.722;2022-12-10T05:12:15;4.35;;;2.92;;
13222;SDS011;6676;45.192;5.722;2022-12-10T05:15:08;4.35;;;2.42;;
13222;SDS011;6676;45.192;5.722;2022-12-10T05:20:40;2.52;;;1.95;;
13222;SDS011;6676;45.192;5.722;2022-12-10T05:23:32;2.90;;;1.98;;
13222;SDS011;6676;45.192;5.722;2022-12-10T05:26:25;3.67;;;2.47;;
13222;SDS011;6676;45.192;5.722;2022-12-10T05:31:56;2.33;;;1.67;;
13222;SDS011;6676;45.192;5.722;2022-12-10T05:34:48;1.72;;;1.25;;
13222;SDS011;6676;45.192;5.722;2022-12-10T05:40:23;4.20;;;1.98;;
13222;SDS011;6676;45.192;5.722;2022-12-10T05:43:14;2.37;;;1.60;;
13222;SDS011;6676;45.192;5.722;2022-12-10T05:46:07;2.35;;;1.70;;
13222;SDS011;6676;45.192;5.722;2022-12-10T05:49:01;4.78;;;2.67;;
13222;SDS011;6676;45.192;5.722;2022-12-10T05:51:54;2.30;;;1.67;;
13222;SDS011;6676;45.192;5.722;2022-12-10T05:54:46;1.70;;;1.22;;
13222;SDS011;6676;45.192;5.722;2022-12-10T06:00:16;3.22;;;1.42;;
13222;SDS011;6676;45.192;5.722;2022-12-10T06:03:09;2.30;;;1.92;;
13222;SDS011;6676;45.192;5.722;2022-12-10T06:05:50;2.27;;;1.45;;
13222;SDS011;6676;45.192;5.722;2022-12-10T06:08:42;3.67;;;2.00;;
13222;SDS011;6676;45.192;5.722;2022-12-10T06:11:35;3.60;;;2.35;;
13222;SDS011;6676;45.192;5.722;2022-12-10T06:14:27;4.03;;;2.00;;
13222;SDS011;6676;45.192;5.722;2022-12-10T06:17:18;2.92;;;1.67;;
13222;SDS011;6676;45.192;5.722;2022-12-10T06:20:11;2.77;;;1.92;;
13222;SDS011;6676;45.192;5.722;2022-12-10T06:23:02;2.95;;;2.08;;
13222;SDS011;6676;45.192;5.722;2022-12-10T06:25:54;1.82;;;1.45;;
13222;SDS011;6676;45.192;5.722;2022-12-10T06:28:45;3.17;;;1.80;;
13222;SDS011;6676;45.192;5.722;2022-12-10T06:31:38;2.85;;;1.47;;
13222;SDS011;6676;45.192;5.722;2022-12-10T06:34:30;2.35;;;1.70;;
13222;SDS011;6676;45.192;5.722;2022-12-10T06:40:01;1.42;;;1.00;;
13222;SDS011;6676;45.192;5.722;2022-12-10T06:42:53;1.98;;;1.45;;
13222;SDS011;6676;45.192;5.722;2022-12-10T06:48:26;2.50;;;1.85;;
13222;SDS011;6676;45.192;5.722;2022-12-10T06:51:17;3.00;;;2.10;;
13222;SDS011;6676;45.192;5.722;2022-12-10T06:54:09;1.90;;;1.27;;
13222;SDS011;6676;45.192;5.722;2022-12-10T06:57:02;2.37;;;1.65;;
13222;SDS011;6676;45.192;5.722;2022-12-10T06:59:53;2.05;;;1.52;;
13222;SDS011;6676;45.192;5.722;2022-12-10T07:05:28;1.87;;;1.40;;
13222;SDS011;6676;45.192;5.722;2022-12-10T07:08:19;1.55;;;1.30;;
13222;SDS011;6676;45.192;5.722;2022-12-10T07:11:12;1.40;;;0.90;;
13222;SDS011;6676;45.192;5.722;2022-12-10T07:14:06;4.62;;;2.22;;
13222;SDS011;6676;45.192;5.722;2022-12-10T07:16:59;3.02;;;2.20;;
13222;SDS011;6676;45.192;5.722;2022-12-10T07:19:50;2.58;;;1.55;;
13222;SDS011;6676;45.192;5.722;2022-12-10T07:25:22;3.10;;;2.17;;
13222;SDS011;6676;45.192;5.722;2022-12-10T07:28:14;3.70;;;3.05;;
13222;SDS011;6676;45.192;5.722;2022-12-10T07:31:08;3.72;;;2.33;;
13222;SDS011;6676;45.192;5.722;2022-12-10T07:34:01;2.25;;;1.92;;
13222;SDS011;6676;45.192;5.722;2022-12-10T07:36:53;3.50;;;2.65;;
13222;SDS011;6676;45.192;5.722;2022-12-10T07:39:44;4.15;;;3.05;;
13222;SDS011;6676;45.192;5.722;2022-12-10T07:42:36;4.70;;;3.33;;
13222;SDS011;6676;45.192;5.722;2022-12-10T07:45:28;3.67;;;3.10;;
13222;SDS011;6676;45.192;5.722;2022-12-10T07:51:02;2.80;;;1.80;;
13222;SDS011;6676;45.192;5.722;2022-12-10T07:53:54;3.25;;;2.12;;
13222;SDS011;6676;45.192;5.722;2022-12-10T07:56:46;3.60;;;2.60;;
13222;SDS011;6676;45.192;5.722;2022-12-10T07:59:37;2.20;;;1.70;;
13222;SDS011;6676;45.192;5.722;2022-12-10T08:02:29;4.20;;;2.15;;
13222;SDS011;6676;45.192;5.722;2022-12-10T08:05:09;4.28;;;2.75;;
13222;SDS011;6676;45.192;5.722;2022-12-10T08:08:01;2.90;;;1.95;;
13222;SDS011;6676;45.192;5.722;2022-12-10T08:10:55;2.58;;;1.95;;
13222;SDS011;6676;45.192;5.722;2022-12-10T08:13:49;2.55;;;1.90;;
13222;SDS011;6676;45.192;5.722;2022-12-10T08:16:42;3.55;;;2.62;;
13222;SDS011;6676;45.192;5.722;2022-12-10T08:22:19;2.58;;;2.08;;
13222;SDS011;6676;45.192;5.722;2022-12-10T08:25:10;2.87;;;2.58;;
13222;SDS011;6676;45.192;5.722;2022-12-10T08:28:02;3.35;;;2.72;;
13222;SDS011;6676;45.192;5.722;2022-12-10T08:30:54;4.45;;;3.52;;
13222;SDS011;6676;45.192;5.722;2022-12-10T08:33:46;5.10;;;3.65;;
13222;SDS011;6676;45.192;5.722;2022-12-10T08:36:38;4.83;;;3.98;;
13222;SDS011;6676;45.192;5.722;2022-12-10T08:39:30;7.17;;;5.70;;
13222;SDS011;6676;45.192;5.722;2022-12-10T08:45:01;6.00;;;4.80;;
13222;SDS011;6676;45.192;5.722;2022-12-10T08:47:54;4.92;;;4.22;;
13222;SDS011;6676;45.192;5.722;2022-12-10T08:50:45;7.30;;;4.08;;
13222;SDS011;6676;45.192;5.722;2022-12-10T08:56:21;4.50;;;3.60;;
13222;SDS011;6676;45.192;5.722;2022-12-10T08:59:12;6.37;;;5.37;;
13222;SDS011;6676;45.192;5.722;2022-12-10T09:02:07;4.90;;;4.05;;
13222;SDS011;6676;45.192;5.722;2022-12-10T09:05:00;6.90;;;4.60;;
13222;SDS011;6676;45.192;5.722;2022-12-10T09:10:35;7.20;;;4.42;;
13222;SDS011;6676;45.192;5.722;2022-12-10T09:13:27;6.70;;;5.22;;
13222;SDS011;6676;45.192;5.722;2022-12-10T09:16:19;7.58;;;5.40;;
13222;SDS011;6676;45.192;5.722;2022-12-10T09:19:13;7.45;;;5.37;;
13222;SDS011;6676;45.192;5.722;2022-12-10T09:21:54;7.47;;;4.92;;
13222;SDS011;6676;45.192;5.722;2022-12-10T09:24:46;8.00;;;5.97;;
13222;SDS011;6676;45.192;5.722;2022-12-10T09:30:26;6.08;;;3.85;;
13222;SDS011;6676;45.192;5.722;2022-12-10T09:33:18;7.08;;;4.83;;
13222;SDS011;6676;45.192;5.722;2022-12-10T09:36:12;9.08;;;5.90;;
13222;SDS011;6676;45.192;5.722;2022-12-10T09:39:04;9.10;;;6.60;;
13222;SDS011;6676;45.192;5.722;2022-12-10T09:42:03;6.60;;;4.58;;
13222;SDS011;6676;45.192;5.722;2022-12-10T09:45:04;8.53;;;6.03;;
13222;SDS011;6676;45.192;5.722;2022-12-10T09:48:03;8.00;;;5.65;;
13222;SDS011;6676;45.192;5.722;2022-12-10T09:50:59;7.17;;;5.65;;
13222;SDS011;6676;45.192;5.722;2022-12-10T09:53:55;8.58;;;5.42;;
13222;SDS011;6676;45.192;5.722;2022-12-10T09:56:49;8.85;;;6.22;;
13222;SDS011;6676;45.192;5.722;2022-12-10T09:59:44;9.33;;;7.50;;
13222;SDS011;6676;45.192;5.722;2022-12-10T10:05:21;8.13;;;5.65;;
13222;SDS011;6676;45.192;5.722;2022-12-10T10:08:20;11.33;;;7.15;;
13222;SDS011;6676;45.192;5.722;2022-12-10T10:11:16;9.23;;;6.87;;
13222;SDS011;6676;45.192;5.722;2022-12-10T10:14:10;8.88;;;6.45;;
13222;SDS011;6676;45.192;5.722;2022-12-10T10:17:07;13.48;;;9.08;;
13222;SDS011;6676;45.192;5.722;2022-12-10T10:19:59;11.05;;;7.72;;
13222;SDS011;6676;45.192;5.722;2022-12-10T10:25:30;14.68;;;9.70;;
13222;SDS011;6676;45.192;5.722;2022-12-10T10:28:22;12.33;;;8.38;;
13222;SDS011;6676;45.192;5.722;2022-12-10T10:31:19;13.70;;;9.13;;
13222;SDS011;6676;45.192;5.722;2022-12-10T10:34:15;13.53;;;9.75;;
13222;SDS011;6676;45.192;5.722;2022-12-10T10:37:11;15.78;;;9.93;;
13222;SDS011;6676;45.192;5.722;2022-12-10T10:40:00;13.20;;;8.40;;
13222;SDS011;6676;45.192;5.722;2022-12-10T10:42:58;10.17;;;6.37;;
13222;SDS011;6676;45.192;5.722;2022-12-10T10:45:56;11.43;;;8.23;;
13222;SDS011;6676;45.192;5.722;2022-12-10T10:48:50;11.63;;;7.50;;
13222;SDS011;6676;45.192;5.722;2022-12-10T10:51:43;13.55;;;8.38;;
13222;SDS011;6676;45.192;5.722;2022-12-10T10:54:37;12.85;;;9.43;;
13222;SDS011;6676;45.192;5.722;2022-12-10T10:57:32;12.07;;;8.03;;
13222;SDS011;6676;45.192;5.722;2022-12-10T11:00:25;12.93;;;7.97;;
13222;SDS011;6676;45.192;5.722;2022-12-10T11:03:17;14.80;;;8.80;;
13222;SDS011;6676;45.192;5.722;2022-12-10T11:08:32;10.98;;;7.92;;
13222;SDS011;6676;45.192;5.722;2022-12-10T11:14:13;17.70;;;11.10;;
13222;SDS011;6676;45.192;5.722;2022-12-10T11:17:17;13.08;;;8.70;;
13222;SDS011;6676;45.192;5.722;2022-12-10T11:20:16;14.83;;;8.83;;
13222;SDS011;6676;45.192;5.722;2022-12-10T11:23:05;14.35;;;9.38;;
13222;SDS011;6676;45.192;5.722;2022-12-10T11:26:05;12.73;;;7.53;;
13222;SDS011;6676;45.192;5.722;2022-12-10T11:29:10;13.35;;;9.33;;
13222;SDS011;6676;45.192;5.722;2022-12-10T11:32:11;14.55;;;9.53;;
13222;SDS011;6676;45.192;5.722;2022-12-10T11:34:56;14.60;;;9.68;;
13222;SDS011;6676;45.192;5.722;2022-12-10T11:37:53;16.27;;;10.48;;
13222;SDS011;6676;45.192;5.722;2022-12-10T11:40:48;17.52;;;10.23;;
13222;SDS011;6676;45.192;5.722;2022-12-10T11:43:49;14.95;;;9.85;;
13222;SDS011;6676;45.192;5.722;2022-12-10T11:46:59;16.15;;;10.53;;
13222;SDS011;6676;45.192;5.722;2022-12-10T11:50:07;19.02;;;12.23;;
13222;SDS011;6676;45.192;5.722;2022-12-10T11:53:06;14.28;;;8.55;;
13222;SDS011;6676;45.192;5.722;2022-12-10T11:56:24;16.48;;;10.10;;
13222;SDS011;6676;45.192;5.722;2022-12-10T11:59:21;16.27;;;10.70;;
13222;SDS011;6676;45.192;5.722;2022-12-10T12:02:07;14.03;;;8.68;;
13222;SDS011;6676;45.192;5.722;2022-12-10T12:08:15;17.55;;;11.00;;
13222;SDS011;6676;45.192;5.722;2022-12-10T12:11:03;12.47;;;7.40;;
13222;SDS011;6676;45.192;5.722;2022-12-10T12:14:01;14.55;;;8.90;;
13222;SDS011;6676;45.192;5.722;2022-12-10T12:16:59;13.48;;;8.53;;
13222;SDS011;6676;45.192;5.722;2022-12-10T12:22:39;10.95;;;7.28;;
13222;SDS011;6676;45.192;5.722;2022-12-10T12:39:36;12.98;;;7.58;;
13222;SDS011;6676;45.192;5.722;2022-12-10T12:42:29;15.95;;;9.73;;
13222;SDS011;6676;45.192;5.722;2022-12-10T12:45:12;12.85;;;8.48;;
13222;SDS011;6676;45.192;5.722;2022-12-10T12:50:53;11.93;;;7.20;;
13222;SDS011;6676;45.192;5.722;2022-12-10T12:56:29;12.15;;;7.55;;
13222;SDS011;6676;45.192;5.722;2022-12-10T12:59:28;14.63;;;9.20;;
13222;SDS011;6676;45.192;5.722;2022-12-10T13:02:30;15.93;;;10.50;;
13222;SDS011;6676;45.192;5.722;2022-12-10T13:05:32;12.37;;;7.65;;
13222;SDS011;6676;45.192;5.722;2022-12-10T13:08:30;11.53;;;7.37;;
13222;SDS011;6676;45.192;5.722;2022-12-10T13:14:14;12.53;;;7.75;;
13222;SDS011;6676;45.192;5.722;2022-12-10T13:17:24;12.10;;;6.37;;
13222;SDS011;6676;45.192;5.722;2022-12-10T13:20:25;9.58;;;6.47;;
13222;SDS011;6676;45.192;5.722;2022-12-10T13:23:30;11.65;;;6.60;;
13222;SDS011;6676;45.192;5.722;2022-12-10T13:26:25;13.78;;;7.72;;
13222;SDS011;6676;45.192;5.722;2022-12-10T13:29:25;11.08;;;6.78;;
13222;SDS011;6676;45.192;5.722;2022-12-10T13:35:27;10.30;;;6.75;;
13222;SDS011;6676;45.192;5.722;2022-12-10T13:41:12;8.18;;;4.95;;
13222;SDS011;6676;45.192;5.722;2022-12-10T13:47:05;8.95;;;6.25;;
13222;SDS011;6676;45.192;5.722;2022-12-10T13:50:00;10.10;;;6.15;;
13222;SDS011;6676;45.192;5.722;2022-12-10T13:55:55;9.25;;;6.83;;
13222;SDS011;6676;45.192;5.722;2022-12-10T13:58:55;6.67;;;4.62;;
13222;SDS011;6676;45.192;5.722;2022-12-10T14:01:58;8.40;;;5.58;;
13222;SDS011;6676;45.192;5.722;2022-12-10T14:10:47;11.20;;;6.90;;
13222;SDS011;6676;45.192;5.722;2022-12-10T14:14:00;11.00;;;5.95;;
13222;SDS011;6676;45.192;5.722;2022-12-10T14:16:55;10.88;;;5.20;;
13222;SDS011;6676;45.192;5.722;2022-12-10T14:19:50;8.88;;;5.05;;
13222;SDS011;6676;45.192;5.722;2022-12-10T14:22:37;8.98;;;5.25;;
13222;SDS011;6676;45.192;5.722;2022-12-10T14:25:51;10.32;;;6.80;;
13222;SDS011;6676;45.192;5.722;2022-12-10T14:28:57;11.25;;;7.08;;
13222;SDS011;6676;45.192;5.722;2022-12-10T14:31:50;7.75;;;4.72;;
13222;SDS011;6676;45.192;5.722;2022-12-10T14:34:42;10.35;;;6.25;;
13222;SDS011;6676;45.192;5.722;2022-12-10T14:37:39;9.45;;;5.67;;
13222;SDS011;6676;45.192;5.722;2022-12-10T14:40:36;12.30;;;6.40;;
13222;SDS011;6676;45.192;5.722;2022-12-10T14:43:29;10.88;;;6.75;;
13222;SDS011;6676;45.192;5.722;2022-12-10T14:46:24;9.93;;;6.33;;
13222;SDS011;6676;45.192;5.722;2022-12-10T14:49:19;9.48;;;5.12;;
13222;SDS011;6676;45.192;5.722;2022-12-10T14:52:15;14.13;;;7.87;;
13222;SDS011;6676;45.192;5.722;2022-12-10T14:55:05;9.65;;;6.40;;
13222;SDS011;6676;45.192;5.722;2022-12-10T15:00:48;13.58;;;10.28;;
13222;SDS011;6676;45.192;5.722;2022-12-10T15:03:42;13.83;;;7.28;;
13222;SDS011;6676;45.192;5.722;2022-12-10T15:06:35;8.93;;;5.70;;
13222;SDS011;6676;45.192;5.722;2022-12-10T15:12:15;13.03;;;7.45;;
13222;SDS011;6676;45.192;5.722;2022-12-10T15:15:31;10.85;;;6.42;;
13222;SDS011;6676;45.192;5.722;2022-12-10T15:18:14;10.25;;;6.83;;
13222;SDS011;6676;45.192;5.722;2022-12-10T15:21:03;9.88;;;6.00;;
13222;SDS011;6676;45.192;5.722;2022-12-10T15:24:07;10.72;;;6.53;;
13222;SDS011;6676;45.192;5.722;2022-12-10T15:27:13;11.15;;;7.42;;
13222;SDS011;6676;45.192;5.722;2022-12-10T15:30:21;12.53;;;7.85;;
13222;SDS011;6676;45.192;5.722;2022-12-10T15:33:26;10.72;;;6.40;;
13222;SDS011;6676;45.192;5.722;2022-12-10T15:36:25;11.95;;;7.40;;
13222;SDS011;6676;45.192;5.722;2022-12-10T15:39:20;11.45;;;7.28;;
13222;SDS011;6676;45.192;5.722;2022-12-10T15:42:28;10.85;;;6.33;;
13222;SDS011;6676;45.192;5.722;2022-12-10T15:45:12;11.65;;;7.05;;
13222;SDS011;6676;45.192;5.722;2022-12-10T15:50:50;8.68;;;5.65;;
13222;SDS011;6676;45.192;5.722;2022-12-10T15:53:44;11.25;;;6.15;;
13222;SDS011;6676;45.192;5.722;2022-12-10T15:56:36;8.95;;;6.58;;
13222;SDS011;6676;45.192;5.722;2022-12-10T15:59:27;16.00;;;9.33;;
13222;SDS011;6676;45.192;5.722;2022-12-10T16:05:10;15.30;;;11.28;;
13222;SDS011;6676;45.192;5.722;2022-12-10T16:10:40;12.30;;;8.53;;
13222;SDS011;6676;45.192;5.722;2022-12-10T16:13:34;11.25;;;6.80;;
13222;SDS011;6676;45.192;5.722;2022-12-10T16:16:28;11.05;;;6.42;;
13222;SDS011;6676;45.192;5.722;2022-12-10T16:19:19;11.95;;;7.08;;
13222;SDS011;6676;45.192;5.722;2022-12-10T16:22:13;9.83;;;6.20;;
13222;SDS011;6676;45.192;5.722;2022-12-10T16:25:06;12.05;;;7.75;;
13222;SDS011;6676;45.192;5.722;2022-12-10T16:30:43;13.10;;;7.75;;
13222;SDS011;6676;45.192;5.722;2022-12-10T16:33:37;13.18;;;7.78;;
13222;SDS011;6676;45.192;5.722;2022-12-10T16:36:29;9.98;;;6.30;;
13222;SDS011;6676;45.192;5.722;2022-12-10T16:39:21;10.45;;;5.80;;
13222;SDS011;6676;45.192;5.722;2022-12-10T16:42:14;12.78;;;7.03;;
13222;SDS011;6676;45.192;5.722;2022-12-10T16:45:13;12.15;;;7.78;;
13222;SDS011;6676;45.192;5.722;2022-12-10T16:50:48;12.10;;;7.67;;
13222;SDS011;6676;45.192;5.722;2022-12-10T16:53:42;11.73;;;7.75;;
13222;SDS011;6676;45.192;5.722;2022-12-10T16:56:24;13.35;;;7.53;;
13222;SDS011;6676;45.192;5.722;2022-12-10T16:59:15;12.93;;;7.87;;
13222;SDS011;6676;45.192;5.722;2022-12-10T17:02:09;9.43;;;6.83;;
13222;SDS011;6676;45.192;5.722;2022-12-10T17:05:05;10.50;;;6.20;;
13222;SDS011;6676;45.192;5.722;2022-12-10T17:08:03;14.80;;;8.93;;
13222;SDS011;6676;45.192;5.722;2022-12-10T17:10:55;8.93;;;5.22;;
13222;SDS011;6676;45.192;5.722;2022-12-10T17:14:09;17.90;;;9.40;;
13222;SDS011;6676;45.192;5.722;2022-12-10T17:17:06;16.17;;;9.88;;
13222;SDS011;6676;45.192;5.722;2022-12-10T17:20:02;13.45;;;8.43;;
13222;SDS011;6676;45.192;5.722;2022-12-10T17:23:01;13.22;;;7.90;;
13222;SDS011;6676;45.192;5.722;2022-12-10T17:25:52;11.65;;;7.08;;
13222;SDS011;6676;45.192;5.722;2022-12-10T17:28:46;10.10;;;6.55;;
13222;SDS011;6676;45.192;5.722;2022-12-10T17:31:38;13.20;;;6.75;;
13222;SDS011;6676;45.192;5.722;2022-12-10T17:37:10;14.28;;;8.93;;
13222;SDS011;6676;45.192;5.722;2022-12-10T17:40:05;13.03;;;8.45;;
13222;SDS011;6676;45.192;5.722;2022-12-10T17:43:04;14.43;;;8.63;;
13222;SDS011;6676;45.192;5.722;2022-12-10T17:45:56;15.85;;;9.70;;
13222;SDS011;6676;45.192;5.722;2022-12-10T17:51:37;16.23;;;9.18;;
13222;SDS011;6676;45.192;5.722;2022-12-10T17:54:29;15.95;;;9.95;;
13222;SDS011;6676;45.192;5.722;2022-12-10T18:00:01;11.40;;;8.00;;
13222;SDS011;6676;45.192;5.722;2022-12-10T18:02:57;12.45;;;8.00;;
13222;SDS011;6676;45.192;5.722;2022-12-10T18:05:49;14.45;;;8.78;;
13222;SDS011;6676;45.192;5.722;2022-12-10T18:08:42;13.43;;;7.70;;
13222;SDS011;6676;45.192;5.722;2022-12-10T18:11:34;14.55;;;9.10;;
13222;SDS011;6676;45.192;5.722;2022-12-10T18:14:27;12.75;;;8.38;;
13222;SDS011;6676;45.192;5.722;2022-12-10T18:20:01;11.18;;;7.20;;
13222;SDS011;6676;45.192;5.722;2022-12-10T18:25:33;13.43;;;8.65;;
13222;SDS011;6676;45.192;5.722;2022-12-10T18:28:48;9.05;;;6.05;;
13222;SDS011;6676;45.192;5.722;2022-12-10T18:31:43;10.20;;;6.58;;
13222;SDS011;6676;45.192;5.722;2022-12-10T18:34:35;11.18;;;6.47;;
13222;SDS011;6676;45.192;5.722;2022-12-10T18:40:08;10.72;;;6.65;;
13222;SDS011;6676;45.192;5.722;2022-12-10T18:45:45;11.97;;;6.65;;
13222;SDS011;6676;45.192;5.722;2022-12-10T18:48:36;10.43;;;7.22;;
13222;SDS011;6676;45.192;5.722;2022-12-10T18:51:28;8.75;;;5.03;;
13222;SDS011;6676;45.192;5.722;2022-12-10T18:54:20;11.20;;;6.53;;
13222;SDS011;6676;45.192;5.722;2022-12-10T18:57:12;10.35;;;6.87;;
13222;SDS011;6676;45.192;5.722;2022-12-10T19:00:09;11.93;;;8.20;;
13222;SDS011;6676;45.192;5.722;2022-12-10T19:05:48;10.48;;;5.47;;
13222;SDS011;6676;45.192;5.722;2022-12-10T19:08:39;12.65;;;8.08;;
13222;SDS011;6676;45.192;5.722;2022-12-10T19:11:32;10.88;;;6.42;;
13222;SDS011;6676;45.192;5.722;2022-12-10T19:14:13;11.88;;;6.85;;
13222;SDS011;6676;45.192;5.722;2022-12-10T19:17:05;10.15;;;6.22;;
13222;SDS011;6676;45.192;5.722;2022-12-10T19:19:58;10.58;;;6.45;;
13222;SDS011;6676;45.192;5.722;2022-12-10T19:25:36;11.33;;;6.03;;
13222;SDS011;6676;45.192;5.722;2022-12-10T19:28:28;10.93;;;6.90;;
13222;SDS011;6676;45.192;5.722;2022-12-10T19:31:20;13.62;;;8.18;;
13222;SDS011;6676;45.192;5.722;2022-12-10T19:34:12;10.93;;;6.92;;
13222;SDS011;6676;45.192;5.722;2022-12-10T19:37:07;10.20;;;6.70;;
13222;SDS011;6676;45.192;5.722;2022-12-10T19:40:00;8.83;;;6.37;;
13222;SDS011;6676;45.192;5.722;2022-12-10T19:42:52;8.05;;;4.83;;
13222;SDS011;6676;45.192;5.722;2022-12-10T19:45:45;7.95;;;5.33;;
13222;SDS011;6676;45.192;5.722;2022-12-10T19:48:37;13.08;;;8.05;;
13222;SDS011;6676;45.192;5.722;2022-12-10T19:51:28;9.48;;;5.50;;
13222;SDS011;6676;45.192;5.722;2022-12-10T19:54:11;10.18;;;6.92;;
13222;SDS011;6676;45.192;5.722;2022-12-10T19:57:03;13.48;;;8.53;;
13222;SDS011;6676;45.192;5.722;2022-12-10T19:59:55;9.88;;;6.25;;
13222;SDS011;6676;45.192;5.722;2022-12-10T20:02:46;10.63;;;6.67;;
13222;SDS011;6676;45.192;5.722;2022-12-10T20:05:38;12.05;;;6.92;;
13222;SDS011;6676;45.192;5.722;2022-12-10T20:08:30;6.58;;;4.35;;
13222;SDS011;6676;45.192;5.722;2022-12-10T20:11:24;9.60;;;5.60;;
13222;SDS011;6676;45.192;5.722;2022-12-10T20:14:22;9.85;;;6.60;;
13222;SDS011;6676;45.192;5.722;2022-12-10T20:17:14;8.73;;;5.37;;
13222;SDS011;6676;45.192;5.722;2022-12-10T20:20:13;10.03;;;6.35;;